createdAt,value
2023-03-12T00:02:12.622Z,97217.34
2023-03-12T00:04:40.670Z,97218.67
2023-03-12T00:07:08.307Z,97218.53
2023-03-12T00:09:38.682Z,97232.55
2023-03-12T00:12:08.620Z,97233.90
2023-03-12T00:14:35.538Z,97239.16
2023-03-12T00:17:02.295Z,97238.99
2023-03-12T00:19:29.552Z,97225.21
2023-03-12T00:21:57.835Z,97212.86
2023-03-12T00:24:26.824Z,97216.91
2023-03-12T00:26:54.474Z,97214.36
2023-03-12T00:29:21.219Z,97215.98
2023-03-12T00:31:47.897Z,97222.19
2023-03-12T00:34:14.745Z,97227.08
2023-03-12T00:36:41.410Z,97236.46
2023-03-12T00:39:10.667Z,97235.61
2023-03-12T00:41:47.177Z,97229.98
2023-03-12T00:44:13.869Z,97231.73
2023-03-12T00:46:40.542Z,97235.55
2023-03-12T00:49:07.226Z,97231.95
2023-03-12T00:51:33.850Z,97236.31
2023-03-12T00:54:00.728Z,97237.30
2023-03-12T00:56:27.409Z,97235.40
2023-03-12T00:58:54.241Z,97239.85
2023-03-12T01:01:20.884Z,97241.48
2023-03-12T01:03:50.858Z,97245.73
2023-03-12T01:06:18.245Z,97253.17
2023-03-12T01:08:45.978Z,97254.77
2023-03-12T01:11:14.186Z,97258.66
2023-03-12T01:13:40.907Z,97255.52
2023-03-12T01:16:07.677Z,97264.52
2023-03-12T01:18:34.522Z,97260.76
2023-03-12T01:21:01.807Z,97255.00
2023-03-12T01:23:28.922Z,97258.63
2023-03-12T01:25:55.854Z,97257.42
2023-03-12T01:28:23.309Z,97269.11
2023-03-12T01:30:50.142Z,97265.91
2023-03-12T01:33:17.942Z,97270.36
2023-03-12T01:35:45.396Z,97270.73
2023-03-12T01:38:13.473Z,97271.38
2023-03-12T01:40:40.381Z,97276.04
2023-03-12T01:43:29.586Z,97282.23
2023-03-12T01:46:32.387Z,97295.60
2023-03-12T01:49:29.215Z,97309.71
2023-03-12T01:52:07.418Z,97321.38
2023-03-12T01:54:49.564Z,97325.48
2023-03-12T01:57:34.868Z,97330.11
2023-03-12T02:00:08.348Z,97341.02
2023-03-12T02:02:42.169Z,97343.15
2023-03-12T02:05:19.489Z,97340.90
2023-03-12T02:07:46.559Z,97352.67
2023-03-12T02:10:13.913Z,97358.63
2023-03-12T02:12:42.269Z,97358.33
2023-03-12T02:15:09.441Z,97361.33
2023-03-12T02:17:40.310Z,97371.23
2023-03-12T02:20:19.403Z,97381.60
2023-03-12T02:22:52.353Z,97395.23
2023-03-12T02:25:30.866Z,97412.36
2023-03-12T02:27:59.157Z,97422.69
2023-03-12T02:30:27.788Z,97432.94
2023-03-12T02:33:00.105Z,97435.15
2023-03-12T02:35:27.288Z,97441.06
2023-03-12T02:37:55.263Z,97451.58
2023-03-12T02:40:35.926Z,97455.01
2023-03-12T02:43:07.379Z,97463.09
2023-03-12T02:45:35.742Z,97466.83
2023-03-12T02:48:03.169Z,97470.56
2023-03-12T02:50:31.961Z,97478.00
2023-03-12T02:52:58.562Z,97482.29
2023-03-12T02:55:27.197Z,97484.36
2023-03-12T02:57:53.913Z,97483.75
2023-03-12T03:00:21.143Z,97489.97
2023-03-12T03:02:51.419Z,97497.10
2023-03-12T03:05:19.931Z,97502.29
2023-03-12T03:07:49.331Z,97512.52
2023-03-12T03:10:17.810Z,97520.91
2023-03-12T03:12:44.557Z,97528.95
2023-03-12T03:15:12.245Z,97537.61
2023-03-12T03:17:39.874Z,97530.81
2023-03-12T03:20:10.675Z,97528.42
2023-03-12T03:22:43.540Z,97528.55
2023-03-12T03:25:10.569Z,97530.30
2023-03-12T03:27:37.140Z,97531.61
2023-03-12T03:30:05.862Z,97533.69
2023-03-12T03:32:34.206Z,97538.47
2023-03-12T03:35:06.005Z,97546.16
2023-03-12T03:37:33.746Z,97554.76
2023-03-12T03:40:01.193Z,97563.69
2023-03-12T03:42:28.156Z,97559.05
2023-03-12T03:44:55.483Z,97566.83
2023-03-12T03:47:23.225Z,97571.86
2023-03-12T03:49:50.070Z,97575.98
2023-03-12T03:52:16.816Z,97579.48
2023-03-12T03:54:43.956Z,97574.51
2023-03-12T03:57:10.798Z,97576.15
2023-03-12T03:59:43.731Z,97586.45
2023-03-12T04:02:10.806Z,97589.56
2023-03-12T04:04:38.143Z,97597.88
2023-03-12T04:07:08.606Z,97606.48
2023-03-12T04:09:36.478Z,97614.27
2023-03-12T04:12:05.400Z,97616.16
2023-03-12T04:14:32.733Z,97624.25
2023-03-12T04:17:00.109Z,97627.35
2023-03-12T04:19:27.223Z,97634.61
2023-03-12T04:21:54.072Z,97634.98
2023-03-12T04:24:22.018Z,97641.41
2023-03-12T04:26:49.188Z,97656.30
2023-03-12T04:29:18.115Z,97657.34
2023-03-12T04:31:45.580Z,97664.02
2023-03-12T04:34:14.402Z,97670.20
2023-03-12T04:36:41.807Z,97680.44
2023-03-12T04:39:08.991Z,97683.34
2023-03-12T04:41:36.848Z,97688.53
2023-03-12T04:44:10.934Z,97690.85
2023-03-12T04:46:39.836Z,97696.98
2023-03-12T04:49:07.303Z,97707.47
2023-03-12T04:51:34.859Z,97713.94
2023-03-12T04:56:09.898Z,97716.92
2023-03-12T04:58:38.480Z,97721.05
2023-03-12T05:01:07.246Z,97729.27
2023-03-12T05:03:35.756Z,97723.63
2023-03-12T05:06:05.068Z,97734.83
2023-03-12T05:08:41.859Z,97736.36
2023-03-12T05:11:13.496Z,97734.91
2023-03-12T05:13:42.060Z,97735.40
2023-03-12T05:16:11.479Z,97744.80
2023-03-12T05:18:43.546Z,97745.38
2023-03-12T05:21:14.098Z,97759.42
2023-03-12T05:23:43.244Z,97767.42
2023-03-12T05:26:19.018Z,97781.24
2023-03-12T05:28:47.596Z,97784.30
2023-03-12T05:31:16.125Z,97795.59
2023-03-12T05:33:44.678Z,97813.80
2023-03-12T05:36:13.632Z,97821.26
2023-03-12T05:38:42.824Z,97830.93
2023-03-12T05:41:31.391Z,97845.98
2023-03-12T05:44:03.031Z,97853.11
2023-03-12T05:46:32.156Z,97860.38
2023-03-12T05:49:00.630Z,97867.84
2023-03-12T05:51:29.565Z,97872.40
2023-03-12T05:53:57.547Z,97885.23
2023-03-12T05:56:25.489Z,97889.85
2023-03-12T05:58:53.842Z,97888.95
2023-03-12T06:01:27.004Z,97894.42
2023-03-12T06:03:56.652Z,97897.11
2023-03-12T06:06:26.030Z,97910.75
2023-03-12T06:08:55.679Z,97914.46
2023-03-12T06:11:23.755Z,97922.70
2023-03-12T06:13:52.752Z,97930.55
2023-03-12T06:16:22.325Z,97934.02
2023-03-12T06:18:58.153Z,97941.52
2023-03-12T06:21:35.248Z,97950.95
2023-03-12T06:24:05.249Z,97955.58
2023-03-12T06:26:49.350Z,97961.23
2023-03-12T06:29:17.346Z,97973.95
2023-03-12T06:31:45.477Z,97984.09
2023-03-12T06:34:14.230Z,97988.25
2023-03-12T06:36:42.524Z,98000.83
2023-03-12T06:39:10.595Z,98007.94
2023-03-12T06:41:41.592Z,98016.41
2023-03-12T06:44:10.023Z,98020.85
2023-03-12T06:46:42.716Z,98027.23
2023-03-12T06:49:11.516Z,98038.73
2023-03-12T06:51:39.538Z,98043.20
2023-03-12T06:54:08.572Z,98050.23
2023-03-12T06:56:37.130Z,98054.35
2023-03-12T06:59:06.353Z,98065.34
2023-03-12T07:01:35.067Z,98067.61
2023-03-12T07:04:03.138Z,98076.94
2023-03-12T07:06:31.320Z,98083.84
2023-03-12T07:09:05.365Z,98092.30
2023-03-12T07:11:36.569Z,98092.42
2023-03-12T07:14:04.995Z,98100.15
2023-03-12T07:16:36.529Z,98104.35
2023-03-12T07:19:05.799Z,98117.48
2023-03-12T07:21:34.258Z,98122.25
2023-03-12T07:24:08.027Z,98126.27
2023-03-12T07:26:36.955Z,98129.94
2023-03-12T07:29:05.243Z,98139.00
2023-03-12T07:31:33.291Z,98144.66
2023-03-12T07:34:03.310Z,98157.54
2023-03-12T07:36:36.598Z,98157.12
2023-03-12T07:39:04.672Z,98165.13
2023-03-12T07:41:32.680Z,98169.92
2023-03-12T07:44:00.717Z,98179.66
2023-03-12T07:46:29.206Z,98185.73
2023-03-12T07:48:57.651Z,98188.59
2023-03-12T07:51:25.992Z,98189.85
2023-03-12T07:53:54.191Z,98202.92
2023-03-12T07:56:22.314Z,98205.10
2023-03-12T07:58:50.461Z,98206.88
2023-03-12T08:01:18.937Z,98220.19
2023-03-12T08:03:47.598Z,98224.52
2023-03-12T08:06:16.244Z,98230.11
2023-03-12T08:08:44.359Z,98235.45
2023-03-12T08:11:12.414Z,98244.92
2023-03-12T08:13:42.557Z,98252.11
2023-03-12T08:16:14.775Z,98255.27
2023-03-12T08:18:44.586Z,98265.10
2023-03-12T08:21:16.348Z,98270.52
2023-03-12T08:23:45.619Z,98274.17
2023-03-12T08:26:15.326Z,98281.52
2023-03-12T08:28:43.766Z,98283.17
2023-03-12T08:31:12.060Z,98287.82
2023-03-12T08:33:43.530Z,98290.05
2023-03-12T08:36:11.694Z,98293.51
2023-03-12T08:38:40.395Z,98296.29
2023-03-12T08:41:08.410Z,98301.27
2023-03-12T08:43:36.525Z,98303.98
2023-03-12T08:46:06.342Z,98314.91
2023-03-12T08:48:34.460Z,98323.56
2023-03-12T08:51:04.421Z,98326.50
2023-03-12T08:53:35.844Z,98335.77
2023-03-12T08:56:04.679Z,98338.21
2023-03-12T08:58:32.725Z,98337.01
2023-03-12T09:01:00.863Z,98342.59
2023-03-12T09:03:29.769Z,98345.29
2023-03-12T09:06:05.934Z,98347.63
2023-03-12T09:08:36.479Z,98356.41
2023-03-12T09:11:05.534Z,98362.41
2023-03-12T09:13:54.950Z,98370.56
2023-03-12T09:16:22.319Z,98374.56
2023-03-12T09:18:51.151Z,98383.78
2023-03-12T09:21:22.147Z,98379.83
2023-03-12T09:23:50.751Z,98390.52
2023-03-12T09:26:19.074Z,98393.77
2023-03-12T09:28:49.579Z,98392.74
2023-03-12T09:31:17.922Z,98402.30
2023-03-12T09:33:45.988Z,98409.27
2023-03-12T09:36:14.185Z,98417.45
2023-03-12T09:38:42.072Z,98430.90
2023-03-12T09:41:27.874Z,98429.84
2023-03-12T09:44:04.635Z,98440.22
2023-03-12T09:46:41.786Z,98441.13
2023-03-12T09:49:46.742Z,98445.64
2023-03-12T09:52:22.189Z,98457.30
2023-03-12T09:55:23.598Z,98458.46
2023-03-12T09:57:51.940Z,98466.36
2023-03-12T10:00:21.962Z,98467.86
2023-03-12T10:03:05.676Z,98472.48
2023-03-12T10:06:04.104Z,98479.74
2023-03-12T10:08:57.395Z,98481.73
2023-03-12T10:11:55.849Z,98490.02
2023-03-12T10:14:43.597Z,98493.58
2023-03-12T10:17:27.197Z,98498.75
2023-03-12T10:20:03.761Z,98505.20
2023-03-12T10:23:11.399Z,98515.73
2023-03-12T10:25:48.574Z,98516.34
2023-03-12T10:28:22.366Z,98523.89
2023-03-12T10:30:54.242Z,98530.52
2023-03-12T10:33:26.186Z,98536.40
2023-03-12T10:35:54.258Z,98538.58
2023-03-12T10:38:28.363Z,98539.53
2023-03-12T10:40:56.632Z,98539.41
2023-03-12T10:43:25.624Z,98541.27
2023-03-12T10:46:22.063Z,98540.70
2023-03-12T10:48:52.316Z,98544.79
2023-03-12T10:51:20.702Z,98544.27
2023-03-12T10:53:51.146Z,98542.35
2023-03-12T10:56:19.667Z,98539.39
2023-03-12T10:58:51.603Z,98547.61
2023-03-12T11:01:22.693Z,98550.23
2023-03-12T11:03:51.563Z,98556.05
2023-03-12T11:06:29.132Z,98559.18
2023-03-12T11:09:16.693Z,98565.80
2023-03-12T11:11:47.752Z,98565.01
2023-03-12T11:14:23.293Z,98559.05
2023-03-12T11:16:52.192Z,98562.68
2023-03-12T11:19:33.293Z,98566.80
2023-03-12T11:22:08.769Z,98570.70
2023-03-12T11:24:37.137Z,98577.38
2023-03-12T11:27:07.072Z,98576.98
2023-03-12T11:29:41.112Z,98577.16
2023-03-12T11:32:30.189Z,98579.41
2023-03-12T11:34:58.535Z,98584.62
2023-03-12T11:38:01.013Z,98584.21
2023-03-12T11:41:00.837Z,98583.80
2023-03-12T11:43:43.733Z,98588.11
2023-03-12T11:46:21.719Z,98585.56
2023-03-12T11:49:22.209Z,98584.82
2023-03-12T11:51:53.748Z,98587.66
2023-03-12T11:54:43.325Z,98586.33
2023-03-12T11:57:40.696Z,98598.08
2023-03-12T12:00:18.119Z,98609.18
2023-03-12T12:02:55.836Z,98612.62
2023-03-12T12:05:27.248Z,98613.34
2023-03-12T12:08:04.083Z,98614.61
2023-03-12T12:10:52.500Z,98625.56
2023-03-12T12:13:38.954Z,98627.69
2023-03-12T12:16:23.699Z,98639.35
2023-03-12T12:18:54.752Z,98638.40
2023-03-12T12:21:48.614Z,98644.23
2023-03-12T12:24:22.847Z,98655.86
2023-03-12T12:27:19.669Z,98656.71
2023-03-12T12:30:01.705Z,98656.31
2023-03-12T12:32:52.161Z,98667.79
2023-03-12T12:35:36.033Z,98667.25
2023-03-12T12:38:07.219Z,98665.48
2023-03-12T12:40:42.009Z,98673.44
2023-03-12T12:43:16.202Z,98676.30
2023-03-12T12:45:44.330Z,98682.44
2023-03-12T12:48:30.579Z,98685.44
2023-03-12T12:51:02.194Z,98694.02
2023-03-12T12:53:47.257Z,98699.05
2023-03-12T12:56:34.310Z,98697.90
2023-03-12T12:59:25.223Z,98704.51
2023-03-12T13:01:55.166Z,98707.05
2023-03-12T13:04:34.120Z,98713.20
2023-03-12T13:07:12.146Z,98714.61
2023-03-12T13:09:41.716Z,98718.10
2023-03-12T13:12:27.105Z,98722.34
2023-03-12T13:14:57.754Z,98724.38
2023-03-12T13:17:28.128Z,98726.73
2023-03-12T13:20:08.480Z,98728.75
2023-03-12T13:23:05.177Z,98739.22
2023-03-12T13:25:52.457Z,98739.60
2023-03-12T13:29:05.998Z,98740.43
2023-03-12T13:31:41.436Z,98743.23
2023-03-12T13:34:15.492Z,98748.02
2023-03-12T13:37:07.633Z,98747.40
2023-03-12T13:39:36.313Z,98756.14
2023-03-12T13:42:22.973Z,98751.00
2023-03-12T13:44:52.262Z,98757.73
2023-03-12T13:47:26.573Z,98749.08
2023-03-12T13:49:58.899Z,98758.60
2023-03-12T13:52:33.856Z,98751.63
2023-03-12T13:55:03.138Z,98754.15
2023-03-12T13:57:40.316Z,98751.80
2023-03-12T14:00:18.571Z,98755.95
2023-03-12T14:02:57.892Z,98752.73
2023-03-12T14:05:26.114Z,98757.13
2023-03-12T14:08:15.792Z,98757.02
2023-03-12T14:10:52.312Z,98756.27
2023-03-12T14:13:29.580Z,98755.95
2023-03-12T14:16:17.304Z,98754.50
2023-03-12T14:18:47.797Z,98760.05
2023-03-12T14:21:17.064Z,98763.05
2023-03-12T14:23:54.775Z,98762.73
2023-03-12T14:26:34.459Z,98758.17
2023-03-12T14:29:05.225Z,98754.27
2023-03-12T14:31:35.860Z,98761.98
2023-03-12T14:34:20.826Z,98765.81
2023-03-12T14:36:57.150Z,98771.58
2023-03-12T14:39:55.782Z,98778.65
2023-03-12T14:42:29.552Z,98784.55
2023-03-12T14:45:19.019Z,98791.48
2023-03-12T14:47:59.598Z,98791.41
2023-03-12T14:50:36.332Z,98799.23
2023-03-12T14:53:26.435Z,98804.61
2023-03-12T14:56:09.283Z,98811.52
2023-03-12T14:58:46.804Z,98818.41
2023-03-12T15:01:30.442Z,98837.48
2023-03-12T15:04:03.520Z,98857.19
2023-03-12T15:06:37.469Z,98828.61
2023-03-12T15:09:07.902Z,98825.60
2023-03-12T15:11:40.467Z,98824.92
2023-03-12T15:14:15.820Z,98826.91
2023-03-12T15:16:46.620Z,98819.77
2023-03-12T15:19:17.391Z,98835.66
2023-03-12T15:21:50.889Z,98832.34
2023-03-12T15:24:19.715Z,98828.21
2023-03-12T15:26:48.410Z,98847.34
2023-03-12T15:29:41.031Z,98852.19
2023-03-12T15:32:18.655Z,98857.23
2023-03-12T15:34:50.071Z,98868.66
2023-03-12T15:37:36.320Z,98871.45
2023-03-12T15:40:20.903Z,98871.78
2023-03-12T15:43:01.006Z,98871.31
2023-03-12T15:45:40.138Z,98875.90
2023-03-12T15:48:35.442Z,98874.44
2023-03-12T15:51:11.777Z,98872.63
2023-03-12T15:53:40.655Z,98875.95
2023-03-12T15:56:12.750Z,98885.98
2023-03-12T15:58:41.707Z,98892.89
2023-03-12T16:01:12.734Z,98894.86
2023-03-12T16:03:45.829Z,98907.29
2023-03-12T16:06:32.218Z,98912.98
2023-03-12T16:09:06.319Z,98924.55
2023-03-12T16:11:36.441Z,98927.05
2023-03-12T16:14:08.531Z,98928.14
2023-03-12T16:16:37.683Z,98922.14
2023-03-12T16:19:16.148Z,98918.98
2023-03-12T16:21:44.689Z,98934.42
2023-03-12T16:24:16.575Z,98941.50
2023-03-12T16:26:50.265Z,98949.98
2023-03-12T16:29:18.701Z,98954.59
2023-03-12T16:31:57.335Z,98979.10
2023-03-12T16:34:25.489Z,99009.02
2023-03-12T16:36:53.827Z,99008.60
2023-03-12T16:39:23.997Z,99006.71
2023-03-12T16:41:52.049Z,99009.55
2023-03-12T16:44:21.004Z,99010.60
2023-03-12T16:46:49.735Z,99005.68
2023-03-12T16:49:20.947Z,99018.74
2023-03-12T16:51:50.107Z,99008.13
2023-03-12T16:54:18.744Z,99021.02
2023-03-12T16:56:48.302Z,99022.05
2023-03-12T16:59:25.527Z,99038.66
2023-03-12T17:01:53.973Z,99033.13
2023-03-12T17:04:23.182Z,99036.59
2023-03-12T17:06:51.211Z,99053.45
2023-03-12T17:09:20.768Z,99054.94
2023-03-12T17:14:18.627Z,99062.92
2023-03-12T17:16:52.227Z,99067.30
2023-03-12T17:19:20.509Z,99076.11
2023-03-12T17:21:50.212Z,99079.73
2023-03-12T17:24:28.106Z,99084.69
2023-03-12T17:26:58.252Z,99087.50
2023-03-12T17:29:27.321Z,99096.52
2023-03-12T17:31:55.824Z,99103.69
2023-03-12T17:34:30.452Z,99108.66
2023-03-12T17:37:03.466Z,99111.92
2023-03-12T17:39:35.642Z,99116.84
2023-03-12T17:42:04.057Z,99116.70
2023-03-12T17:44:39.033Z,99122.23
2023-03-12T17:47:07.505Z,99123.86
2023-03-12T17:49:41.773Z,99135.16
2023-03-12T17:52:16.266Z,99145.07
2023-03-12T17:54:55.490Z,99144.76
2023-03-12T17:57:35.343Z,99149.16
2023-03-12T18:00:28.257Z,99149.20
2023-03-12T18:03:09.218Z,99155.65
2023-03-12T18:08:52.170Z,99164.29
2023-03-12T18:11:28.409Z,99173.56
2023-03-12T18:14:04.083Z,99178.64
2023-03-12T18:16:36.632Z,99187.90
2023-03-12T18:19:12.558Z,99190.10
2023-03-12T18:21:43.909Z,99188.13
2023-03-12T18:24:14.313Z,99192.52
2023-03-12T18:26:49.761Z,99191.45
2023-03-12T18:29:18.219Z,99191.86
2023-03-12T18:31:46.189Z,99197.73
2023-03-12T18:34:14.564Z,99197.79
2023-03-12T18:36:44.052Z,99202.67
2023-03-12T18:39:12.622Z,99204.70
2023-03-12T18:41:42.101Z,99208.51
2023-03-12T18:44:13.181Z,99211.94
2023-03-12T18:46:43.158Z,99218.94
2023-03-12T18:49:15.200Z,99226.19
2023-03-12T18:51:43.706Z,99229.05
2023-03-12T18:54:13.083Z,99237.17
2023-03-12T18:56:41.397Z,99243.27
2023-03-12T18:59:32.776Z,99247.11
2023-03-12T19:02:01.008Z,99252.20
2023-03-12T19:04:30.319Z,99263.17
2023-03-12T19:07:00.934Z,99268.56
2023-03-12T19:09:30.620Z,99266.64
2023-03-12T19:11:59.615Z,99275.02
2023-03-12T19:14:29.484Z,99275.54
2023-03-12T19:17:00.588Z,99281.30
2023-03-12T19:19:29.460Z,99284.44
2023-03-12T19:22:00.229Z,99284.12
2023-03-12T19:24:29.839Z,99286.09
2023-03-12T19:26:58.636Z,99296.16
2023-03-12T19:29:26.947Z,99297.61
2023-03-12T19:31:55.387Z,99304.86
2023-03-12T19:34:28.527Z,99314.58
2023-03-12T19:36:56.809Z,99325.45
2023-03-12T19:39:25.478Z,99328.62
2023-03-12T19:41:54.920Z,99332.25
2023-03-12T19:44:23.756Z,99338.64
2023-03-12T19:46:52.718Z,99343.98
2023-03-12T19:49:21.177Z,99352.81
2023-03-12T19:51:49.360Z,99359.10
2023-03-12T19:54:19.028Z,99366.44
2023-03-12T19:56:47.566Z,99382.05
2023-03-12T19:59:19.979Z,99391.28
2023-03-12T20:01:48.104Z,99401.42
2023-03-12T20:04:18.593Z,99408.36
2023-03-12T20:06:47.705Z,99422.64
2023-03-12T20:09:16.173Z,99428.72
2023-03-12T20:11:47.993Z,99421.20
2023-03-12T20:14:18.011Z,99414.11
2023-03-12T20:16:46.163Z,99419.86
2023-03-12T20:19:15.299Z,99418.60
2023-03-12T20:21:47.088Z,99419.08
2023-03-12T20:24:18.196Z,99412.36
2023-03-12T20:26:46.583Z,99420.90
2023-03-12T20:29:14.724Z,99421.08
2023-03-12T20:31:48.086Z,99413.19
2023-03-12T20:34:17.037Z,99411.48
2023-03-12T20:36:47.673Z,99422.16
2023-03-12T20:39:17.995Z,99433.70
2023-03-12T20:41:46.502Z,99437.61
2023-03-12T20:44:14.932Z,99438.93
2023-03-12T20:46:42.881Z,99444.30
2023-03-12T20:49:11.165Z,99445.90
2023-03-12T20:51:46.622Z,99443.43
2023-03-12T20:54:15.497Z,99455.63
2023-03-12T20:56:44.874Z,99465.73
2023-03-12T20:59:13.085Z,99467.44
2023-03-12T21:01:43.682Z,99469.55
2023-03-12T21:04:11.998Z,99470.06
2023-03-12T21:06:42.103Z,99468.49
2023-03-12T21:09:10.836Z,99468.88
2023-03-12T21:11:40.440Z,99473.04
2023-03-12T21:14:08.993Z,99477.55
2023-03-12T21:16:42.271Z,99487.57
2023-03-12T21:19:10.252Z,99491.12
2023-03-12T21:21:40.707Z,99487.64
2023-03-12T21:24:09.393Z,99486.76
2023-03-12T21:26:38.328Z,99484.29
2023-03-12T21:29:06.997Z,99481.15
2023-03-12T21:31:36.551Z,99483.30
2023-03-12T21:34:05.241Z,99487.42
2023-03-12T21:36:34.460Z,99492.42
2023-03-12T21:39:03.101Z,99495.30
2023-03-12T21:41:31.236Z,99497.23
2023-03-12T21:44:05.300Z,99504.62
2023-03-12T21:46:34.468Z,99511.39
2023-03-12T21:49:03.395Z,99516.95
2023-03-12T21:51:31.577Z,99522.56
2023-03-12T21:53:59.706Z,99530.41
2023-03-12T21:56:29.782Z,99536.45
2023-03-12T21:58:58.101Z,99539.52
2023-03-12T22:01:26.296Z,99547.27
2023-03-12T22:03:54.554Z,99550.80
2023-03-12T22:06:25.016Z,99554.02
2023-03-12T22:09:00.145Z,99562.10
2023-03-12T22:11:29.623Z,99567.58
2023-03-12T22:13:57.732Z,99569.11
2023-03-12T22:16:27.833Z,99571.23
2023-03-12T22:18:56.687Z,99578.86
2023-03-12T22:21:24.954Z,99588.15
2023-03-12T22:23:53.707Z,99591.65
2023-03-12T22:26:23.006Z,99602.91
2023-03-12T22:28:53.390Z,99604.17
2023-03-12T22:31:22.642Z,99611.20
2023-03-12T22:33:50.718Z,99617.88
2023-03-12T22:36:19.546Z,99626.12
2023-03-12T22:38:52.236Z,99630.71
2023-03-12T22:41:27.710Z,99642.02
2023-03-12T22:43:57.545Z,99650.65
2023-03-12T22:46:29.854Z,99660.08
2023-03-12T22:48:59.714Z,99662.17
2023-03-12T22:51:29.313Z,99667.14
2023-03-12T22:53:58.412Z,99666.86
2023-03-12T22:56:27.034Z,99667.22
2023-03-12T22:58:56.008Z,99669.50
2023-03-12T23:01:24.892Z,99673.90
2023-03-12T23:03:56.996Z,99682.41
2023-03-12T23:06:27.218Z,99684.77
2023-03-12T23:08:55.805Z,99693.09
2023-03-12T23:11:25.691Z,99690.95
2023-03-12T23:13:54.495Z,99695.55
2023-03-12T23:16:24.670Z,99700.01
2023-03-12T23:18:56.606Z,99704.05
2023-03-12T23:21:25.212Z,99707.61
2023-03-12T23:23:54.767Z,99717.91
2023-03-12T23:26:26.996Z,99719.84
2023-03-12T23:28:58.109Z,99722.72
2023-03-12T23:31:28.138Z,99725.36
2023-03-12T23:33:59.493Z,99730.52
2023-03-12T23:36:32.065Z,99730.83
2023-03-12T23:39:00.656Z,99726.59
2023-03-12T23:41:29.804Z,99728.86
2023-03-12T23:44:02.408Z,99736.70
2023-03-12T23:46:31.501Z,99740.36
2023-03-12T23:49:00.274Z,99742.70
2023-03-12T23:51:31.055Z,99744.95
2023-03-12T23:54:05.237Z,99750.95
2023-03-12T23:56:35.905Z,99755.73
2023-03-12T23:59:05.466Z,99759.98
